Time;durP1;ratioP1;P1;durP2;ratioP2;P2;SDS_P1;SDS_P2;PMS_P1;PMS_P2;Temp;Humidity;BMP_temperature;BMP_pressure;BME280_temperature;BME280_humidity;BME280_pressure;Samples;Min_cycle;Max_cycle;Signal;HPM_P1;HPM_P2
2021/11/07 00:01:53;;;;;;;;;;;;;;;;;;5132344;28;19908;-73
2021/11/07 00:11:58;;;;;;;;;;;;;;;;;;5133482;28;19912;-75
2021/11/07 00:14:25;;;;;;;;;;;;;;;;;;5134915;28;19933;-75
2021/11/07 00:16:50;;;;;;;;;;;;;;;;;;5121597;28;19915;-73
2021/11/07 00:19:25;;;;;;;;;;;;;;;;;;5133491;28;19967;-73
2021/11/07 00:27:21;;;;;;;;;;;;;;;;;;5132355;28;19900;-75
2021/11/07 00:29:56;;;;;;;;;;;;;;;;;;5133004;28;19907;-75
2021/11/07 00:38:13;;;;;;;;;;;;;;;;;;5133902;28;19904;-73
2021/11/07 00:42:53;;;;;;;;;;;;;;;;;;5133634;28;19921;-75
2021/11/07 00:45:28;;;;;;;;;;;;;;;;;;5134754;28;19899;-73
2021/11/07 00:48:05;;;;;;;;;;;;;;;;;;;;;
2021/11/07 00:50:26;;;;;;;;;;;;;;;;;;5132478;28;19904;-73
2021/11/07 00:53:13;;;;;;;;;;;;;;;;;;5133951;28;19924;-74
2021/11/07 00:55:52;;;;;;;;;;;;;;;;;;5129510;28;19899;-74
2021/11/07 00:58:22;;;;;;;;;;;;;;;;;;5134513;28;19922;-74
2021/11/07 01:03:16;;;;;;;;;;;;;;;;;;5132173;28;19925;-74
2021/11/07 01:05:41;;;;;;;;;;;;;;;;;;5136087;28;19919;-74
2021/11/07 01:08:06;;;;;;;;;;;;;;;;;;5136892;28;19907;-74
2021/11/07 01:10:31;;;;;;;;;;;;;;;;;;5136600;28;19899;-74
2021/11/07 01:12:57;;;;;;;;;;;;;;;;;;5135339;28;19934;-74
2021/11/07 01:15:24;;;;;;;;;;;;;;;;;;5135417;28;19908;-74
2021/11/07 01:17:49;;;;;;;;;;;;;;;;;;5136643;28;19899;-73
2021/11/07 01:20:16;;;;;;;;;;;;;;;;;;5137530;28;19914;-73
2021/11/07 01:22:55;;;;;;;;;;;;;;;;;;5136895;28;19942;-73
2021/11/07 01:25:20;;;;;;;;;;;;;;;;;;5136838;28;20167;-73
2021/11/07 01:27:46;;;;;;;;;;;;;;;;;;5137412;28;19900;-73
2021/11/07 01:30:16;;;;;;;;;;;;;;;;;;5136207;28;19912;-73
2021/11/07 01:32:46;;;;;;;;;;;;;;;;;;5135716;28;19907;-73
2021/11/07 01:35:25;;;;;;;;;;;;;;;;;;5136128;28;19899;-73
2021/11/07 01:38:11;;;;;;;;;;;;;;;;;;5136859;28;19908;-73
2021/11/07 01:40:42;;;;;;;;;;;;;;;;;;5135600;28;19916;-73
2021/11/07 01:43:07;;;;;;;;;;;;;;;;;;5135761;28;19908;-73
2021/11/07 01:45:37;;;;;;;;;;;;;;;;;;5134887;28;19933;-73
2021/11/07 01:48:28;;;;;;;;;;;;;;;;;;5136375;28;19900;-73
2021/11/07 01:50:57;;;;;;;;;;;;;;;;;;5154714;27;19950;-73
2021/11/07 01:53:37;;;;;;;;;;;;;;;;;;5135922;28;19911;-73
2021/11/07 01:56:03;;;;;;;;;;;;;;;;;;5134049;28;19903;-73
2021/11/07 01:58:29;;;;;;;;;;;;;;;;;;5135332;28;19911;-73
2021/11/07 02:00:54;;;;;;;;;;;;;;;;;;5136984;28;19900;-73
2021/11/07 02:03:19;;;;;;;;;;;;;;;;;;5136539;28;19904;-73
2021/11/07 02:05:44;;;;;;;;;;;;;;;;;;5136677;28;19912;-73
2021/11/07 02:08:10;;;;;;;;;;;;;;;;;;5134205;28;19916;-74
2021/11/07 02:10:35;;;;;;;;;;;;;;;;;;5134889;28;19907;-74
2021/11/07 02:13:00;;;;;;;;;;;;;;;;;;5133996;28;19924;-73
2021/11/07 02:15:26;;;;;;;;;;;;;;;;;;5134714;28;19899;-73
2021/11/07 02:17:51;;;;;;;;;;;;;;;;;;5128238;28;19907;-74
2021/11/07 02:20:17;;;;;;;;;;;;;;;;;;5137185;28;19951;-74
2021/11/07 02:22:43;;;;;;;;;;;;;;;;;;5136944;28;19900;-73
2021/11/07 02:25:08;;;;;;;;;;;;;;;;;;5135550;28;19896;-73
2021/11/07 02:27:33;;;;;;;;;;;;;;;;;;5131665;28;19942;-73
2021/11/07 02:29:58;;;;;;;;;;;;;;;;;;5137079;27;19903;-73
2021/11/07 02:32:25;;;;;;;;;;;;;;;;;;5133831;28;19923;-73
2021/11/07 02:34:51;;;;;;;;;;;;;;;;;;5132710;28;19941;-73
2021/11/07 02:37:16;;;;;;;;;;;;;;;;;;5132976;28;19908;-73
2021/11/07 02:39:41;;;;;;;;;;;;;;;;;;5135614;28;19908;-73
2021/11/07 02:42:07;;;;;;;;;;;;;;;;;;5135911;28;19923;-73
2021/11/07 02:44:32;;;;;;;;;;;;;;;;;;5135148;28;19896;-73
2021/11/07 02:46:57;;;;;;;;;;;;;;;;;;5135232;28;19904;-73
2021/11/07 02:49:23;;;;;;;;;;;;;;;;;;5134891;28;20210;-73
2021/11/07 02:51:48;;;;;;;;;;;;;;;;;;5135701;27;19929;-73
2021/11/07 02:54:13;;;;;;;;;;;;;;;;;;5133595;28;19927;-73
2021/11/07 02:56:39;;;;;;;;;;;;;;;;;;5133012;28;19959;-73
2021/11/07 02:59:04;;;;;;;;;;;;;;;;;;5134408;28;19925;-74
2021/11/07 03:01:29;;;;;;;;;;;;;;;;;;5134376;28;20110;-73
2021/11/07 03:03:59;;;;;;;;;;;;;;;;;;5135810;28;19900;-73
2021/11/07 03:06:25;;;;;;;;;;;;;;;;;;5135282;28;19914;-73
2021/11/07 03:08:51;;;;;;;;;;;;;;;;;;5134821;28;19908;-74
2021/11/07 03:11:18;;;;;;;;;;;;;;;;;;5135184;28;19967;-75
2021/11/07 03:13:43;;;;;;;;;;;;;;;;;;5135070;28;19939;-75
2021/11/07 03:16:08;;;;;;;;;;;;;;;;;;5135636;28;19964;-75
2021/11/07 03:18:35;;;;;;;;;;;;;;;;;;5135150;28;19908;-75
2021/11/07 03:21:00;;;;;;;;;;;;;;;;;;5135715;28;19895;-75
2021/11/07 03:23:25;;;;;;;;;;;;;;;;;;5134344;28;19900;-74
2021/11/07 03:26:00;;;;;;;;;;;;;;;;;;5133589;28;19995;-75
2021/11/07 03:28:27;;;;;;;;;;;;;;;;;;5134705;28;19907;-75
2021/11/07 03:31:04;;;;;;;;;;;;;;;;;;5134896;28;19961;-74
2021/11/07 03:33:51;;;;;;;;;;;;;;;;;;5135165;28;19912;-74
2021/11/07 03:36:18;;;;;;;;;;;;;;;;;;5135084;28;19896;-75
2021/11/07 03:38:43;;;;;;;;;;;;;;;;;;5135618;28;19903;-74
2021/11/07 03:41:08;;;;;;;;;;;;;;;;;;5134457;28;19999;-74
2021/11/07 03:43:33;;;;;;;;;;;;;;;;;;5133441;28;19971;-74
2021/11/07 03:45:58;;;;;;;;;;;;;;;;;;5133079;28;19899;-74
2021/11/07 03:48:24;;;;;;;;;;;;;;;;;;5134353;28;19912;-74
2021/11/07 03:50:49;;;;;;;;;;;;;;;;;;5133145;28;19900;-75
2021/11/07 03:53:15;;;;;;;;;;;;;;;;;;5134136;28;19968;-75
2021/11/07 03:55:40;;;;;;;;;;;;;;;;;;5134507;28;20096;-74
2021/11/07 03:58:05;;;;;;;;;;;;;;;;;;5131721;28;19919;-74
2021/11/07 04:00:31;;;;;;;;;;;;;;;;;;5132878;28;19916;-74
2021/11/07 04:02:57;;;;;;;;;;;;;;;;;;5133701;28;19931;-75
2021/11/07 04:05:24;;;;;;;;;;;;;;;;;;5133228;28;19904;-75
2021/11/07 04:07:49;;;;;;;;;;;;;;;;;;5134969;28;19900;-75
2021/11/07 04:10:15;;;;;;;;;;;;;;;;;;5134880;28;19939;-73
2021/11/07 04:12:40;;;;;;;;;;;;;;;;;;5135042;28;19915;-75
2021/11/07 04:15:05;;;;;;;;;;;;;;;;;;5134478;28;19904;-75
2021/11/07 04:17:30;;;;;;;;;;;;;;;;;;5134078;28;19987;-75
2021/11/07 04:19:56;;;;;;;;;;;;;;;;;;5132437;28;19939;-75
2021/11/07 04:22:21;;;;;;;;;;;;;;;;;;5133014;28;20009;-75
2021/11/07 04:24:47;;;;;;;;;;;;;;;;;;5133256;28;19911;-74
2021/11/07 04:27:12;;;;;;;;;;;;;;;;;;5133648;28;20239;-75
2021/11/07 04:29:37;;;;;;;;;;;;;;;;;;5130756;28;19979;-75
2021/11/07 04:32:03;;;;;;;;;;;;;;;;;;5133399;28;19925;-73
2021/11/07 04:34:28;;;;;;;;;;;;;;;;;;5137101;28;20176;-74
2021/11/07 04:36:54;;;;;;;;;;;;;;;;;;5138610;28;19919;-75
2021/11/07 04:39:19;;;;;;;;;;;;;;;;;;5137997;28;19911;-75
2021/11/07 04:41:45;;;;;;;;;;;;;;;;;;5137282;28;19968;-75
2021/11/07 04:44:10;;;;;;;;;;;;;;;;;;5136693;28;19904;-73
2021/11/07 04:46:36;;;;;;;;;;;;;;;;;;5134326;28;19911;-74
2021/11/07 04:49:01;;;;;;;;;;;;;;;;;;5137037;28;19908;-74
2021/11/07 04:51:26;;;;;;;;;;;;;;;;;;5137514;27;19900;-74
2021/11/07 04:53:51;;;;;;;;;;;;;;;;;;5136388;28;19908;-74
2021/11/07 04:56:17;;;;;;;;;;;;;;;;;;5138395;28;19953;-74
2021/11/07 04:58:42;;;;;;;;;;;;;;;;;;5137800;28;19909;-75
2021/11/07 05:01:07;;;;;;;;;;;;;;;;;;5120549;28;19911;-74
2021/11/07 05:03:32;;;;;;;;;;;;;;;;;;5136903;28;19904;-74
2021/11/07 05:05:57;;;;;;;;;;;;;;;;;;5136633;28;19910;-75
2021/11/07 05:08:23;;;;;;;;;;;;;;;;;;5137841;28;19934;-75
2021/11/07 05:10:48;;;;;;;;;;;;;;;;;;5138448;28;19899;-75
2021/11/07 05:13:13;;;;;;;;;;;;;;;;;;5137181;28;19919;-74
2021/11/07 05:15:39;;;;;;;;;;;;;;;;;;5126916;28;19904;-74
2021/11/07 05:18:04;;;;;;;;;;;;;;;;;;5136250;28;19927;-74
2021/11/07 05:20:29;;;;;;;;;;;;;;;;;;5137718;27;19932;-75
2021/11/07 05:22:54;;;;;;;;;;;;;;;;;;5137642;27;19900;-74
2021/11/07 05:25:20;;;;;;;;;;;;;;;;;;5136235;28;19960;-74
2021/11/07 05:27:45;;;;;;;;;;;;;;;;;;5136363;28;19899;-74
2021/11/07 05:30:10;;;;;;;;;;;;;;;;;;5135782;28;19908;-74
2021/11/07 05:32:35;;;;;;;;;;;;;;;;;;5132726;28;19920;-76
2021/11/07 05:35:01;;;;;;;;;;;;;;;;;;5136488;28;19964;-75
2021/11/07 05:37:26;;;;;;;;;;;;;;;;;;5136649;28;19900;-75
2021/11/07 05:39:51;;;;;;;;;;;;;;;;;;5137953;28;19915;-75
2021/11/07 05:42:17;;;;;;;;;;;;;;;;;;5136617;28;19967;-74
2021/11/07 05:44:42;;;;;;;;;;;;;;;;;;5126852;28;20220;-74
2021/11/07 05:47:08;;;;;;;;;;;;;;;;;;5135442;28;19908;-75
2021/11/07 05:49:33;;;;;;;;;;;;;;;;;;5135777;28;19935;-74
2021/11/07 05:51:58;;;;;;;;;;;;;;;;;;5137042;27;19935;-74
2021/11/07 05:54:23;;;;;;;;;;;;;;;;;;5134903;28;19947;-74
2021/11/07 05:56:49;;;;;;;;;;;;;;;;;;5136983;28;19900;-74
2021/11/07 05:59:14;;;;;;;;;;;;;;;;;;5136067;28;19908;-74
2021/11/07 06:01:39;;;;;;;;;;;;;;;;;;5133502;28;19915;-75
2021/11/07 06:04:04;;;;;;;;;;;;;;;;;;5135459;28;19915;-74
2021/11/07 06:06:29;;;;;;;;;;;;;;;;;;5132717;28;19926;-74
2021/11/07 06:08:54;;;;;;;;;;;;;;;;;;5133750;28;19940;-75
2021/11/07 06:11:20;;;;;;;;;;;;;;;;;;5135252;27;19900;-74
2021/11/07 06:13:45;;;;;;;;;;;;;;;;;;5126219;27;19908;-74
2021/11/07 06:16:10;;;;;;;;;;;;;;;;;;5136156;27;19977;-74
2021/11/07 06:18:35;;;;;;;;;;;;;;;;;;5137235;28;19900;-74
2021/11/07 06:21:01;;;;;;;;;;;;;;;;;;5133724;28;19942;-74
2021/11/07 06:23:26;;;;;;;;;;;;;;;;;;5135883;28;19919;-74
2021/11/07 06:25:51;;;;;;;;;;;;;;;;;;5136434;28;19907;-74
2021/11/07 06:28:17;;;;;;;;;;;;;;;;;;5135628;28;19959;-74
2021/11/07 06:30:42;;;;;;;;;;;;;;;;;;5137004;28;19899;-74
2021/11/07 06:33:07;;;;;;;;;;;;;;;;;;5134115;28;19916;-74
2021/11/07 06:35:33;;;;;;;;;;;;;;;;;;5133507;28;19911;-74
2021/11/07 06:37:58;;;;;;;;;;;;;;;;;;5135269;28;19957;-75
2021/11/07 06:40:23;;;;;;;;;;;;;;;;;;5135257;28;19900;-75
2021/11/07 06:42:49;;;;;;;;;;;;;;;;;;5136355;28;19927;-74
2021/11/07 06:45:14;;;;;;;;;;;;;;;;;;5136104;28;20026;-74
2021/11/07 06:47:39;;;;;;;;;;;;;;;;;;5149548;27;19911;-75
2021/11/07 06:50:05;;;;;;;;;;;;;;;;;;5135167;28;19931;-75
2021/11/07 06:52:30;;;;;;;;;;;;;;;;;;5136185;28;19915;-73
2021/11/07 06:54:56;;;;;;;;;;;;;;;;;;5136196;28;19903;-75
2021/11/07 06:57:21;;;;;;;;;;;;;;;;;;5123389;28;19914;-74
2021/11/07 06:59:47;;;;;;;;;;;;;;;;;;5133856;28;19907;-75
2021/11/07 07:02:12;;;;;;;;;;;;;;;;;;5135282;27;19912;-74
2021/11/07 07:04:37;;;;;;;;;;;;;;;;;;5133342;28;19911;-75
2021/11/07 07:07:02;;;;;;;;;;;;;;;;;;5133911;28;19907;-74
2021/11/07 07:09:31;;;;;;;;;;;;;;;;;;5133950;28;20008;-75
2021/11/07 07:12:07;;;;;;;;;;;;;;;;;;5135059;28;19902;-74
2021/11/07 07:14:53;;;;;;;;;;;;;;;;;;5135355;28;19908;-75
2021/11/07 07:17:32;;;;;;;;;;;;;;;;;;5134400;28;19967;-75
2021/11/07 07:20:18;;;;;;;;;;;;;;;;;;5132933;27;19911;-75
2021/11/07 07:35:45;;;;;;;;;;;;;;;;;;5134007;28;19908;-75
2021/11/07 07:38:10;;;;;;;;;;;;;;;;;;5133718;28;19952;-76
2021/11/07 07:40:36;;;;;;;;;;;;;;;;;;5135166;28;19900;-75
2021/11/07 07:43:01;;;;;;;;;;;;;;;;;;5134780;28;19994;-74
2021/11/07 07:45:26;;;;;;;;;;;;;;;;;;5134717;28;20259;-74
2021/11/07 07:47:51;;;;;;;;;;;;;;;;;;5133038;28;19912;-75
2021/11/07 07:50:19;;;;;;;;;;;;;;;;;;5132943;28;19900;-74
2021/11/07 07:52:44;;;;;;;;;;;;;;;;;;5133993;28;19907;-75
2021/11/07 07:55:09;;;;;;;;;;;;;;;;;;5134302;28;19965;-74
2021/11/07 07:57:34;;;;;;;;;;;;;;;;;;5135042;28;19911;-75
2021/11/07 08:00:00;;;;;;;;;;;;;;;;;;5135275;28;19908;-75
2021/11/07 08:02:25;;;;;;;;;;;;;;;;;;5135491;28;19971;-74
2021/11/07 08:04:52;;;;;;;;;;;;;;;;;;5133361;28;19912;-76
2021/11/07 08:07:17;;;;;;;;;;;;;;;;;;5133027;28;19935;-75
2021/11/07 08:09:42;;;;;;;;;;;;;;;;;;5137972;28;19899;-75
2021/11/07 08:12:07;;;;;;;;;;;;;;;;;;5137996;28;19907;-76
2021/11/07 08:14:33;;;;;;;;;;;;;;;;;;5135423;28;19922;-75
2021/11/07 08:16:58;;;;;;;;;;;;;;;;;;5138750;27;19971;-75
2021/11/07 08:19:23;;;;;;;;;;;;;;;;;;5138556;28;19915;-75
2021/11/07 08:21:49;;;;;;;;;;;;;;;;;;5137649;27;19912;-74
2021/11/07 08:24:14;;;;;;;;;;;;;;;;;;5138371;28;19899;-75
2021/11/07 08:26:41;;;;;;;;;;;;;;;;;;5136975;28;19900;-75
2021/11/07 08:29:07;;;;;;;;;;;;;;;;;;5138364;28;19896;-73
2021/11/07 08:31:34;;;;;;;;;;;;;;;;;;5136423;28;19908;-74
2021/11/07 08:34:02;;;;;;;;;;;;;;;;;;5138645;28;19908;-75
2021/11/07 08:36:36;;;;;;;;;;;;;;;;;;5135066;28;19909;-74
2021/11/07 08:39:06;;;;;;;;;;;;;;;;;;5136796;28;19942;-74
2021/11/07 08:41:32;;;;;;;;;;;;;;;;;;5128285;28;20203;-74
2021/11/07 09:00:24;;;;;;;;;;;;;;;;;;5133497;28;19960;-75
2021/11/07 09:03:12;;;;;;;;;;;;;;;;;;5137205;27;19904;-74
2021/11/07 09:08:24;;;;;;;;;;;;;;;;;;5136958;28;19904;-73
2021/11/07 09:10:49;;;;;;;;;;;;;;;;;;5135748;28;19911;-75
2021/11/07 09:13:14;;;;;;;;;;;;;;;;;;5137380;28;19908;-74
2021/11/07 09:15:40;;;;;;;;;;;;;;;;;;5138352;27;19907;-73
2021/11/07 09:18:05;;;;;;;;;;;;;;;;;;5137165;28;19896;-74
2021/11/07 09:20:37;;;;;;;;;;;;;;;;;;5137272;27;19900;-74
2021/11/07 09:33:22;;;;;;;;;;;;;;;;;;5133358;28;19908;-74
2021/11/07 09:38:29;;;;;;;;;;;;;;;;;;5135178;28;19918;-73
2021/11/07 09:41:20;;;;;;;;;;;;;;;;;;5135479;28;20027;-73
2021/11/07 09:43:54;;;;;;;;;;;;;;;;;;5134313;28;19904;-73
2021/11/07 09:48:51;;;;;;;;;;;;;;;;;;5134955;28;19908;-73
2021/11/07 09:51:19;;;;;;;;;;;;;;;;;;5135078;28;19900;-72
2021/11/07 09:53:44;;;;;;;;;;;;;;;;;;5135517;28;20000;-73
2021/11/07 09:56:10;;;;;;;;;;;;;;;;;;5133372;28;19915;-74
2021/11/07 09:58:35;;;;;;;;;;;;;;;;;;5134352;28;19900;-74
2021/11/07 10:01:01;;;;;;;;;;;;;;;;;;5134470;27;19900;-73
2021/11/07 10:03:28;;;;;;;;;;;;;;;;;;5135862;27;19899;-72
2021/11/07 10:05:53;;;;;;;;;;;;;;;;;;5135270;28;19911;-73
2021/11/07 10:08:18;;;;;;;;;;;;;;;;;;5132996;28;19930;-72
2021/11/07 10:10:47;;;;;;;;;;;;;;;;;;5134244;28;19998;-73
2021/11/07 10:13:14;;;;;;;;;;;;;;;;;;5134917;28;19919;-73
2021/11/07 10:15:48;;;;;;;;;;;;;;;;;;5135265;27;19908;-72
2021/11/07 10:18:15;;;;;;;;;;;;;;;;;;5130870;28;19955;-72
2021/11/07 10:20:54;;;;;;;;;;;;;;;;;;5134774;28;20090;-72
2021/11/07 10:23:22;;;;;;;;;;;;;;;;;;5134437;28;19927;-72
2021/11/07 10:25:51;;;;;;;;;;;;;;;;;;5122118;28;19908;-72
2021/11/07 10:28:17;;;;;;;;;;;;;;;;;;5133185;28;19908;-72
2021/11/07 10:30:50;;;;;;;;;;;;;;;;;;5133388;28;19923;-73
2021/11/07 10:33:31;;;;;;;;;;;;;;;;;;5133088;28;20003;-72
2021/11/07 10:39:11;;;;;;;;;;;;;;;;;;5117819;28;19908;-72
2021/11/07 10:44:18;;;;;;;;;;;;;;;;;;5134189;28;19915;-72
2021/11/07 10:46:58;;;;;;;;;;;;;;;;;;5133818;28;19998;-73
2021/11/07 10:52:08;;;;;;;;;;;;;;;;;;5130302;28;19908;-71
2021/11/07 10:54:33;;;;;;;;;;;;;;;;;;5129337;28;19946;-72
2021/11/07 10:56:58;;;;;;;;;;;;;;;;;;5130826;28;19911;-72
2021/11/07 10:59:23;;;;;;;;;;;;;;;;;;5123269;28;20212;-72
2021/11/07 11:01:49;;;;;;;;;;;;;;;;;;5120736;27;19900;-73
2021/11/07 11:04:14;;;;;;;;;;;;;;;;;;5124778;27;20532;-73
2021/11/07 11:06:39;;;;;;;;;;;;;;;;;;5132245;28;19904;-72
2021/11/07 11:09:15;;;;;;;;;;;;;;;;;;5108025;28;20009;-73
2021/11/07 11:11:55;;;;;;;;;;;;;;;;;;5133827;28;19915;-72
2021/11/07 11:14:35;;;;;;;;;;;;;;;;;;5133153;28;19933;-73
2021/11/07 11:17:07;;;;;;;;;;;;;;;;;;5135172;28;19900;-73
2021/11/07 11:27:15;;;;;;;;;;;;;;;;;;5135603;28;19899;-73
2021/11/07 11:29:51;;;;;;;;;;;;;;;;;;5135582;28;20341;-73
2021/11/07 11:32:20;;;;;;;;;;;;;;;;;;5133669;28;19904;-72
2021/11/07 11:34:56;;;;;;;;;;;;;;;;;;5116155;28;19908;-73
2021/11/07 11:45:04;;;;;;;;;;;;;;;;;;5134075;28;19907;-73
2021/11/07 11:47:46;;;;;;;;;;;;;;;;;;5134040;28;19900;-72
2021/11/07 11:50:22;;;;;;;;;;;;;;;;;;5135375;28;20323;-72
2021/11/07 11:53:19;;;;;;;;;;;;;;;;;;5133834;28;19932;-72
2021/11/07 11:55:44;;;;;;;;;;;;;;;;;;5133929;28;19907;-72
2021/11/07 11:58:24;;;;;;;;;;;;;;;;;;5132977;28;19961;-73
2021/11/07 12:00:54;;;;;;;;;;;;;;;;;;5135464;28;19980;-72
2021/11/07 12:03:29;;;;;;;;;;;;;;;;;;5133451;27;20184;-72
2021/11/07 12:05:59;;;;;;;;;;;;;;;;;;5133387;28;19904;-73
2021/11/07 12:08:36;;;;;;;;;;;;;;;;;;5133936;28;19904;-72
2021/11/07 12:11:09;;;;;;;;;;;;;;;;;;5133508;28;19930;-73
2021/11/07 12:16:14;;;;;;;;;;;;;;;;;;5135308;28;19919;-73
2021/11/07 12:18:39;;;;;;;;;;;;;;;;;;5134504;28;19946;-73
2021/11/07 12:21:05;;;;;;;;;;;;;;;;;;5134313;28;19900;-74
2021/11/07 12:23:32;;;;;;;;;;;;;;;;;;5134199;28;19908;-73
2021/11/07 12:25:57;;;;;;;;;;;;;;;;;;5133495;28;19908;-73
2021/11/07 12:28:22;;;;;;;;;;;;;;;;;;5132768;28;19926;-73
2021/11/07 12:30:47;;;;;;;;;;;;;;;;;;5134935;28;19910;-73
2021/11/07 12:33:14;;;;;;;;;;;;;;;;;;5134809;28;19919;-72
2021/11/07 12:35:42;;;;;;;;;;;;;;;;;;5132850;28;19906;-73
2021/11/07 12:40:51;;;;;;;;;;;;;;;;;;5131741;28;19908;-73
2021/11/07 12:43:16;;;;;;;;;;;;;;;;;;5121331;28;20185;-73
2021/11/07 12:45:44;;;;;;;;;;;;;;;;;;5132584;28;19908;-73
2021/11/07 12:48:10;;;;;;;;;;;;;;;;;;5134397;28;19900;-73
2021/11/07 12:50:35;;;;;;;;;;;;;;;;;;5133450;28;19908;-72
2021/11/07 12:53:01;;;;;;;;;;;;;;;;;;5134408;28;19979;-73
2021/11/07 12:55:26;;;;;;;;;;;;;;;;;;5133484;28;19899;-72
2021/11/07 12:57:51;;;;;;;;;;;;;;;;;;5137951;28;19926;-72
2021/11/07 13:00:17;;;;;;;;;;;;;;;;;;5137507;28;19900;-72
2021/11/07 13:02:42;;;;;;;;;;;;;;;;;;5137978;27;20154;-72
2021/11/07 13:05:12;;;;;;;;;;;;;;;;;;5137045;28;19919;-73
2021/11/07 13:08:00;;;;;;;;;;;;;;;;;;5137228;28;19959;-72
2021/11/07 13:10:32;;;;;;;;;;;;;;;;;;5132984;28;19915;-72
2021/11/07 13:13:03;;;;;;;;;;;;;;;;;;5131465;27;19926;-72
2021/11/07 13:20:39;;;;;;;;;;;;;;;;;;5130072;27;19906;-71
2021/11/07 13:25:46;;;;;;;;;;;;;;;;;;5120376;28;19943;-73
2021/11/07 13:28:19;;;;;;;;;;;;;;;;;;5131822;28;19907;-72
2021/11/07 13:30:46;;;;;;;;;;;;;;;;;;5137217;28;19914;-72
2021/11/07 13:33:11;;;;;;;;;;;;;;;;;;5130798;28;20000;-72
2021/11/07 13:35:36;;;;;;;;;;;;;;;;;;5130286;28;19916;-71
2021/11/07 13:38:02;;;;;;;;;;;;;;;;;;5136391;28;19900;-72
2021/11/07 13:40:32;;;;;;;;;;;;;;;;;;5130294;28;19899;-72
2021/11/07 13:42:57;;;;;;;;;;;;;;;;;;5135665;28;19936;-72
2021/11/07 13:45:23;;;;;;;;;;;;;;;;;;5131227;28;20022;-72
2021/11/07 13:47:50;;;;;;;;;;;;;;;;;;5136659;28;19910;-72
2021/11/07 13:50:15;;;;;;;;;;;;;;;;;;5135934;28;19971;-72
2021/11/07 13:52:42;;;;;;;;;;;;;;;;;;5137311;28;19908;-72
2021/11/07 13:55:07;;;;;;;;;;;;;;;;;;5137313;28;19933;-72
2021/11/07 13:57:33;;;;;;;;;;;;;;;;;;5143686;27;19916;-72
2021/11/07 13:59:58;;;;;;;;;;;;;;;;;;5136612;28;19925;-72
2021/11/07 14:02:23;;;;;;;;;;;;;;;;;;5134688;27;19908;-72
2021/11/07 14:04:49;;;;;;;;;;;;;;;;;;5136766;28;19903;-73
2021/11/07 14:07:14;;;;;;;;;;;;;;;;;;5136482;28;19935;-72
2021/11/07 14:09:39;;;;;;;;;;;;;;;;;;5136953;28;19907;-72
2021/11/07 14:12:04;;;;;;;;;;;;;;;;;;5134647;28;19949;-72
2021/11/07 14:14:30;;;;;;;;;;;;;;;;;;5135881;28;19907;-72
2021/11/07 14:16:59;;;;;;;;;;;;;;;;;;5126494;27;19911;-72
2021/11/07 14:19:25;;;;;;;;;;;;;;;;;;5136156;28;19950;-73
2021/11/07 14:21:51;;;;;;;;;;;;;;;;;;5136818;28;19907;-72
2021/11/07 14:24:22;;;;;;;;;;;;;;;;;;5135006;28;19925;-71
2021/11/07 14:27:00;;;;;;;;;;;;;;;;;;5135826;28;19900;-74
2021/11/07 14:29:44;;;;;;;;;;;;;;;;;;5135205;28;19959;-73
2021/11/07 14:44:48;;;;;;;;;;;;;;;;;;5135481;28;19899;-73
2021/11/07 14:47:28;;;;;;;;;;;;;;;;;;5135550;28;19918;-72
2021/11/07 14:50:04;;;;;;;;;;;;;;;;;;5133944;28;19916;-73
2021/11/07 14:55:11;;;;;;;;;;;;;;;;;;5135799;28;19907;-73
2021/11/07 15:00:16;;;;;;;;;;;;;;;;;;5134589;28;19934;-73
2021/11/07 15:02:49;;;;;;;;;;;;;;;;;;5136276;27;19964;-73
2021/11/07 15:05:23;;;;;;;;;;;;;;;;;;5136263;28;19908;-73
2021/11/07 15:07:55;;;;;;;;;;;;;;;;;;5131388;27;19915;-76
2021/11/07 15:15:37;;;;;;;;;;;;;;;;;;5133615;28;20148;-73
2021/11/07 15:18:07;;;;;;;;;;;;;;;;;;5149491;27;20023;-74
2021/11/07 15:20:57;;;;;;;;;;;;;;;;;;5132317;27;19900;-74
2021/11/07 15:23:21;;;;;;;;;;;;;;;;;;5131923;28;19919;-74
2021/11/07 15:25:46;;;;;;;;;;;;;;;;;;5131427;28;19943;-73
2021/11/07 15:28:15;;;;;;;;;;;;;;;;;;5130400;28;19919;-74
2021/11/07 15:30:40;;;;;;;;;;;;;;;;;;5132754;28;19938;-74
2021/11/07 15:33:07;;;;;;;;;;;;;;;;;;5128313;28;19908;-73
2021/11/07 15:35:33;;;;;;;;;;;;;;;;;;5132088;28;19908;-74
2021/11/07 15:37:58;;;;;;;;;;;;;;;;;;5132508;28;19914;-74
2021/11/07 15:40:23;;;;;;;;;;;;;;;;;;5130783;28;19904;-73
2021/11/07 15:42:48;;;;;;;;;;;;;;;;;;5132666;28;19899;-74
2021/11/07 15:45:16;;;;;;;;;;;;;;;;;;5132597;28;19910;-74
2021/11/07 15:52:43;;;;;;;;;;;;;;;;;;5123156;28;19945;-74
2021/11/07 15:55:15;;;;;;;;;;;;;;;;;;;;;
2021/11/07 15:57:47;;;;;;;;;;;;;;;;;;5132735;28;19922;-73
2021/11/07 16:03:07;;;;;;;;;;;;;;;;;;5130001;28;19987;-73
2021/11/07 16:05:54;;;;;;;;;;;;;;;;;;5133129;28;19904;-74
2021/11/07 16:10:59;;;;;;;;;;;;;;;;;;5130975;28;19903;-74
2021/11/07 16:18:44;;;;;;;;;;;;;;;;;;5129316;28;19915;-73
2021/11/07 16:21:13;;;;;;;;;;;;;;;;;;5130934;28;20093;-74
2021/11/07 16:23:39;;;;;;;;;;;;;;;;;;5132021;28;19922;-74
2021/11/07 16:26:10;;;;;;;;;;;;;;;;;;5111927;28;19955;-75
2021/11/07 16:28:37;;;;;;;;;;;;;;;;;;5131782;28;19908;-71
2021/11/07 16:31:06;;;;;;;;;;;;;;;;;;5134735;28;19936;-73
2021/11/07 16:33:36;;;;;;;;;;;;;;;;;;5134601;28;20006;-77
2021/11/07 16:36:08;;;;;;;;;;;;;;;;;;5135504;28;19915;-76
2021/11/07 16:38:49;;;;;;;;;;;;;;;;;;5135219;28;19922;-74
2021/11/07 16:41:20;;;;;;;;;;;;;;;;;;5132769;28;20027;-75
2021/11/07 16:43:47;;;;;;;;;;;;;;;;;;5135428;28;19900;-76
2021/11/07 16:46:16;;;;;;;;;;;;;;;;;;5133889;28;19908;-76
2021/11/07 16:48:45;;;;;;;;;;;;;;;;;;5133649;28;19908;-75
2021/11/07 16:51:19;;;;;;;;;;;;;;;;;;5134426;28;19966;-74
2021/11/07 16:53:50;;;;;;;;;;;;;;;;;;5124662;27;19975;-74
2021/11/07 16:56:15;;;;;;;;;;;;;;;;;;5121763;27;19916;-74
2021/11/07 17:01:09;;;;;;;;;;;;;;;;;;5124420;27;19906;-75
2021/11/07 17:03:35;;;;;;;;;;;;;;;;;;5122704;27;19912;-74
2021/11/07 17:08:44;;;;;;;;;;;;;;;;;;5119998;27;20028;-75
2021/11/07 17:11:10;;;;;;;;;;;;;;;;;;5124696;27;19922;-76
2021/11/07 17:13:36;;;;;;;;;;;;;;;;;;5126565;28;19930;-75
2021/11/07 17:16:11;;;;;;;;;;;;;;;;;;5134567;28;19900;-75
2021/11/07 17:18:36;;;;;;;;;;;;;;;;;;5133755;28;19903;-75
2021/11/07 17:26:41;;;;;;;;;;;;;;;;;;5133360;28;19908;-77
2021/11/07 17:29:08;;;;;;;;;;;;;;;;;;5133663;28;19904;-75
2021/11/07 17:31:53;;;;;;;;;;;;;;;;;;5124574;27;19927;-76
2021/11/07 17:34:26;;;;;;;;;;;;;;;;;;5133196;28;20191;-76
2021/11/07 17:36:56;;;;;;;;;;;;;;;;;;5132761;27;19899;-75
2021/11/07 17:39:48;;;;;;;;;;;;;;;;;;5126746;27;20012;-75
2021/11/07 17:55:29;;;;;;;;;;;;;;;;;;5119099;27;20160;-76
2021/11/07 17:57:55;;;;;;;;;;;;;;;;;;5133384;28;19907;-75
2021/11/07 18:00:21;;;;;;;;;;;;;;;;;;5115852;28;19908;-75
2021/11/07 18:02:51;;;;;;;;;;;;;;;;;;5124454;28;19946;-74
2021/11/07 18:05:20;;;;;;;;;;;;;;;;;;5133223;28;19925;-75
2021/11/07 18:07:57;;;;;;;;;;;;;;;;;;5133721;28;19901;-75
2021/11/07 18:10:22;;;;;;;;;;;;;;;;;;5133647;28;19908;-75
2021/11/07 18:12:51;;;;;;;;;;;;;;;;;;5131561;28;19910;-75
2021/11/07 18:15:17;;;;;;;;;;;;;;;;;;5133841;28;19909;-75
2021/11/07 18:17:42;;;;;;;;;;;;;;;;;;5134169;28;19919;-75
2021/11/07 18:20:07;;;;;;;;;;;;;;;;;;5134485;28;19928;-75
2021/11/07 18:22:37;;;;;;;;;;;;;;;;;;5132130;28;20012;-75
2021/11/07 18:25:04;;;;;;;;;;;;;;;;;;5130023;28;20270;-76
2021/11/07 18:27:29;;;;;;;;;;;;;;;;;;5131794;27;19963;-75
2021/11/07 18:29:55;;;;;;;;;;;;;;;;;;5132110;28;19908;-75
2021/11/07 18:32:22;;;;;;;;;;;;;;;;;;5131503;28;19904;-75
2021/11/07 18:34:47;;;;;;;;;;;;;;;;;;5132519;27;20070;-76
2021/11/07 18:37:13;;;;;;;;;;;;;;;;;;5129528;28;19960;-76
2021/11/07 18:39:38;;;;;;;;;;;;;;;;;;5133021;28;19908;-75
2021/11/07 18:42:03;;;;;;;;;;;;;;;;;;5132349;28;19916;-75
2021/11/07 18:44:28;;;;;;;;;;;;;;;;;;5115309;28;19907;-76
2021/11/07 18:46:55;;;;;;;;;;;;;;;;;;5131802;28;19907;-76
2021/11/07 18:49:20;;;;;;;;;;;;;;;;;;5131890;28;19900;-76
2021/11/07 18:51:46;;;;;;;;;;;;;;;;;;5129740;27;19911;-76
2021/11/07 18:54:11;;;;;;;;;;;;;;;;;;5128741;28;19972;-75
2021/11/07 18:56:36;;;;;;;;;;;;;;;;;;5111943;27;19922;-75
2021/11/07 18:59:01;;;;;;;;;;;;;;;;;;5110720;28;19908;-76
2021/11/07 19:01:26;;;;;;;;;;;;;;;;;;5113130;28;19963;-76
2021/11/07 19:03:52;;;;;;;;;;;;;;;;;;5111830;28;19900;-76
2021/11/07 19:06:17;;;;;;;;;;;;;;;;;;5109843;28;19978;-76
2021/11/07 19:08:42;;;;;;;;;;;;;;;;;;5113160;28;19915;-77
2021/11/07 19:11:08;;;;;;;;;;;;;;;;;;5112554;28;19900;-76
2021/11/07 19:13:34;;;;;;;;;;;;;;;;;;5113038;28;19921;-76
2021/11/07 19:15:59;;;;;;;;;;;;;;;;;;5111069;28;19907;-76
2021/11/07 19:18:24;;;;;;;;;;;;;;;;;;5112026;28;19919;-76
2021/11/07 19:20:49;;;;;;;;;;;;;;;;;;5110964;28;20119;-76
2021/11/07 19:23:15;;;;;;;;;;;;;;;;;;5112953;28;19900;-76
2021/11/07 19:25:40;;;;;;;;;;;;;;;;;;5113237;28;19900;-76
2021/11/07 19:28:06;;;;;;;;;;;;;;;;;;5112935;28;20173;-76
2021/11/07 19:30:31;;;;;;;;;;;;;;;;;;5107666;28;19963;-75
2021/11/07 19:32:58;;;;;;;;;;;;;;;;;;5112940;28;19916;-76
2021/11/07 19:35:23;;;;;;;;;;;;;;;;;;5111745;28;19905;-76
2021/11/07 19:37:51;;;;;;;;;;;;;;;;;;5113307;28;19908;-76
2021/11/07 19:40:16;;;;;;;;;;;;;;;;;;5112617;28;19900;-76
2021/11/07 19:42:41;;;;;;;;;;;;;;;;;;5112056;28;19972;-76